Time;durP1;ratioP1;P1;durP2;ratioP2;P2;SDS_P1;SDS_P2;PMS_P1;PMS_P2;Temp;Humidity;BMP_temperature;BMP_pressure;BME280_temperature;BME280_humidity;BME280_pressure;Samples;Min_cycle;Max_cycle;Signal;HPM_P1;HPM_P2
2023/04/29 00:00:16;;;;;;;13.95;8.40;;;;;;;12.88;70.41;99186.47;5032983;28;20029;-78
2023/04/29 00:02:42;;;;;;;15.32;8.32;;;;;;;12.89;70.36;99188.16;5032723;28;20075;-78
2023/04/29 00:05:07;;;;;;;11.80;8.43;;;;;;;13.04;70.35;99204.66;5032969;28;20458;-79
2023/04/29 00:07:33;;;;;;;13.05;8.35;;;;;;;12.89;70.32;99180.31;5032689;28;20462;-79
2023/04/29 00:09:58;;;;;;;10.32;8.27;;;;;;;12.99;69.83;99192.72;5032641;28;20138;-79
2023/04/29 00:12:24;;;;;;;13.95;8.57;;;;;;;13.06;70.11;99200.16;5032541;28;20140;-78
2023/04/29 00:14:49;;;;;;;15.25;9.25;;;;;;;13.05;69.60;99178.41;5032877;28;20033;-79
2023/04/29 00:17:16;;;;;;;14.02;9.23;;;;;;;13.06;69.62;99182.72;5032848;28;20022;-79
2023/04/29 00:19:42;;;;;;;14.00;9.00;;;;;;;13.14;69.37;99187.44;5032467;28;20033;-78
2023/04/29 00:22:08;;;;;;;8.98;8.07;;;;;;;13.25;69.14;99192.84;5032615;28;20029;-78
2023/04/29 00:24:33;;;;;;;11.98;8.63;;;;;;;13.25;69.00;99189.41;5032309;28;20033;-78
2023/04/29 00:26:58;;;;;;;15.13;9.15;;;;;;;13.26;69.05;99183.22;5031200;28;20046;-78
2023/04/29 00:29:24;;;;;;;10.80;8.35;;;;;;;13.08;69.12;99172.97;5032694;28;20029;-79
2023/04/29 00:31:49;;;;;;;10.05;7.50;;;;;;;12.91;69.36;99166.22;5032473;28;20075;-78
2023/04/29 00:34:15;;;;;;;12.18;7.63;;;;;;;12.97;69.88;99178.06;5032455;28;20071;-78
2023/04/29 00:36:40;;;;;;;10.55;8.27;;;;;;;12.89;70.01;99169.84;5032098;28;20025;-78
2023/04/29 00:39:06;;;;;;;12.80;7.95;;;;;;;12.82;69.85;99161.59;5032118;28;20028;-78
2023/04/29 00:41:32;;;;;;;11.55;7.93;;;;;;;12.81;70.24;99169.50;5032172;28;20056;-78
2023/04/29 00:43:57;;;;;;;12.25;7.68;;;;;;;12.76;70.26;99177.63;5032412;28;20036;-78
2023/04/29 00:46:23;;;;;;;12.13;8.65;;;;;;;12.53;70.64;99154.75;5032399;28;20461;-78
2023/04/29 00:48:48;;;;;;;15.88;9.25;;;;;;;12.60;70.72;99169.06;5032014;28;20036;-78
2023/04/29 00:51:16;;;;;;;14.13;8.95;;;;;;;12.58;71.02;99171.81;5032111;28;20057;-78
2023/04/29 00:53:41;;;;;;;11.00;7.97;;;;;;;12.56;71.10;99183.28;5031755;28;20470;-78
2023/04/29 00:56:07;;;;;;;10.73;8.65;;;;;;;12.60;70.97;99169.94;5032196;28;20029;-78
2023/04/29 00:58:34;;;;;;;13.70;7.93;;;;;;;12.44;70.95;99141.31;5031960;28;20466;-78
2023/04/29 01:01:02;;;;;;;11.27;8.40;;;;;;;12.55;71.12;99164.16;5031264;28;20068;-78
2023/04/29 01:03:29;;;;;;;8.90;7.57;;;;;;;12.60;70.82;99156.00;5031804;28;20025;-78
2023/04/29 01:06:33;;;;;;;12.00;8.05;;;;;;;12.61;70.77;99173.38;5032277;28;20037;-78
2023/04/29 01:09:26;;;;;;;9.20;8.23;;;;;;;12.67;70.71;99167.75;5031882;28;20017;-78
2023/04/29 01:12:25;;;;;;;11.00;8.52;;;;;;;12.61;70.96;99168.16;5031737;28;20025;-78
2023/04/29 01:15:20;;;;;;;11.80;8.30;;;;;;;12.63;70.78;99168.91;5031844;28;20021;-78
2023/04/29 01:18:04;;;;;;;13.20;8.32;;;;;;;12.40;71.08;99154.66;5031812;28;20420;-78
2023/04/29 01:20:30;;;;;;;10.77;8.40;;;;;;;12.53;71.19;99167.81;5031598;28;20537;-78
2023/04/29 01:22:56;;;;;;;12.52;8.20;;;;;;;12.46;71.17;99167.34;5031639;28;20053;-78
2023/04/29 01:25:21;;;;;;;12.63;7.78;;;;;;;12.56;71.21;99172.84;5030759;28;20060;-78
2023/04/29 01:27:49;;;;;;;14.50;7.93;;;;;;;12.57;71.05;99167.50;5031632;28;20145;-78
2023/04/29 01:30:37;;;;;;;12.32;8.63;;;;;;;12.37;71.29;99147.84;5031798;28;20033;-78
2023/04/29 01:33:16;;;;;;;10.63;8.13;;;;;;;12.55;71.36;99179.81;5031765;28;20026;-78
2023/04/29 01:35:59;;;;;;;9.98;8.20;;;;;;;12.60;71.33;99171.69;5031738;28;20025;-78
2023/04/29 01:38:54;;;;;;;9.82;7.80;;;;;;;12.44;71.60;99172.66;5032082;28;20065;-78
2023/04/29 01:41:35;;;;;;;12.10;7.78;;;;;;;12.20;72.02;99148.88;5049070;28;20599;-78
2023/04/29 01:44:03;;;;;;;13.32;8.50;;;;;;;12.16;72.32;99150.00;5049191;28;20060;-78
2023/04/29 01:46:29;;;;;;;16.40;8.27;;;;;;;12.22;72.39;99154.03;5048807;28;20032;-78
2023/04/29 01:48:54;;;;;;;11.75;8.43;;;;;;;12.41;72.22;99169.41;5049001;28;20037;-78
2023/04/29 01:51:20;;;;;;;16.73;9.00;;;;;;;12.46;72.22;99177.78;5048835;28;20029;-78
2023/04/29 01:53:46;;;;;;;9.25;8.02;;;;;;;12.33;72.63;99161.19;5048778;28;20392;-78
2023/04/29 01:56:11;;;;;;;10.85;8.75;;;;;;;12.36;72.84;99167.06;5048957;28;20060;-78
2023/04/29 01:58:36;;;;;;;14.00;9.45;;;;;;;12.16;73.51;99144.78;5048677;28;20040;-78
2023/04/29 02:01:02;;;;;;;15.43;10.07;;;;;;;12.29;73.64;99168.38;5049040;28;20042;-78
2023/04/29 02:03:27;;;;;;;15.07;10.48;;;;;;;12.16;74.20;99168.28;5049022;28;20044;-78
2023/04/29 02:05:53;;;;;;;12.63;9.95;;;;;;;11.95;74.52;99138.25;5048696;28;20536;-78
2023/04/29 02:08:18;;;;;;;16.58;11.48;;;;;;;12.18;74.78;99173.44;5048884;28;20089;-78
2023/04/29 02:10:58;;;;;;;16.33;11.27;;;;;;;12.02;75.04;99152.63;5048305;28;20025;-78
2023/04/29 02:13:24;;;;;;;16.95;10.95;;;;;;;12.07;75.55;99165.41;5051837;28;20079;-78
2023/04/29 02:15:49;;;;;;;16.63;11.20;;;;;;;11.98;75.50;99145.91;5052313;28;20111;-78
2023/04/29 02:18:15;;;;;;;17.05;11.50;;;;;;;11.92;75.63;99154.94;5042720;28;20504;-78
2023/04/29 02:20:40;;;;;;;16.58;12.25;;;;;;;11.89;75.94;99146.47;5034757;28;20389;-78
2023/04/29 02:23:06;;;;;;;15.65;11.65;;;;;;;11.90;75.49;99141.16;5034862;28;20033;-78
2023/04/29 02:25:31;;;;;;;14.73;11.63;;;;;;;11.82;75.87;99145.13;5034519;28;20029;-79
2023/04/29 02:27:57;;;;;;;17.83;12.73;;;;;;;11.82;75.82;99132.91;5034596;28;20117;-79
2023/04/29 02:30:22;;;;;;;18.75;12.48;;;;;;;11.94;75.80;99158.31;5034559;28;20171;-79
2023/04/29 02:32:47;;;;;;;21.80;13.20;;;;;;;11.81;75.76;99138.22;5034676;28;20028;-79
2023/04/29 02:35:13;;;;;;;23.00;13.57;;;;;;;11.85;75.91;99142.38;5034729;28;20029;-80
2023/04/29 02:37:38;;;;;;;17.63;13.18;;;;;;;11.81;76.12;99138.22;5034427;28;20466;-80
2023/04/29 02:40:04;;;;;;;17.27;13.30;;;;;;;11.95;76.08;99152.16;5034353;28;20374;-80
2023/04/29 02:42:30;;;;;;;17.38;13.32;;;;;;;11.86;75.94;99136.22;5034695;28;20033;-80
2023/04/29 02:44:55;;;;;;;18.85;13.32;;;;;;;11.83;75.96;99131.16;5034207;28;20029;-78
2023/04/29 02:47:21;;;;;;;17.70;12.55;;;;;;;11.82;76.26;99127.69;5034460;28;20022;-78
2023/04/29 02:49:46;;;;;;;18.77;14.05;;;;;;;11.90;76.30;99132.50;5034320;28;20028;-78
2023/04/29 02:52:12;;;;;;;19.08;13.52;;;;;;;11.79;76.65;99135.69;5034289;28;20428;-78
2023/04/29 02:54:37;;;;;;;20.48;13.20;;;;;;;11.78;76.97;99139.25;5033974;28;20424;-78
2023/04/29 02:57:03;;;;;;;16.73;14.25;;;;;;;11.69;77.36;99145.00;5034428;28;20516;-78
2023/04/29 02:59:28;;;;;;;20.67;14.75;;;;;;;11.69;77.01;99119.75;5034309;28;20029;-78
2023/04/29 03:01:54;;;;;;;17.80;13.98;;;;;;;11.55;77.22;99124.13;5034065;28;20064;-78
2023/04/29 03:04:19;;;;;;;20.45;14.65;;;;;;;11.67;77.12;99129.47;5034163;28;20021;-78
2023/04/29 03:06:44;;;;;;;23.33;13.30;;;;;;;11.62;76.96;99122.81;5033882;28;20033;-78
2023/04/29 03:09:11;;;;;;;19.45;14.68;;;;;;;11.57;76.85;99114.44;5033948;28;20428;-78
2023/04/29 03:11:36;;;;;;;20.25;14.98;;;;;;;11.67;76.88;99139.91;5033920;28;20025;-78
2023/04/29 03:14:03;;;;;;;19.65;14.35;;;;;;;11.55;76.67;99118.91;5034198;28;20385;-78
2023/04/29 03:16:28;;;;;;;23.92;14.50;;;;;;;11.61;76.85;99139.41;5034017;28;20025;-78
2023/04/29 03:18:53;;;;;;;18.83;13.57;;;;;;;11.51;76.92;99114.81;5033777;28;20026;-78
2023/04/29 03:21:18;;;;;;;24.65;16.10;;;;;;;11.33;77.11;99112.31;5033830;28;20037;-78
2023/04/29 03:23:44;;;;;;;21.05;14.05;;;;;;;11.29;77.33;99112.59;5032467;28;20033;-78
2023/04/29 03:26:10;;;;;;;21.52;14.43;;;;;;;11.44;77.38;99133.41;5033764;28;20029;-78
2023/04/29 03:28:35;;;;;;;22.98;15.55;;;;;;;11.47;76.99;99128.03;5033444;28;20627;-78
2023/04/29 03:31:01;;;;;;;19.23;13.52;;;;;;;11.37;76.74;99106.00;5033490;28;20113;-78
2023/04/29 03:33:27;;;;;;;23.73;14.63;;;;;;;11.49;76.99;99120.09;5033618;28;20112;-78
2023/04/29 03:35:52;;;;;;;20.00;14.70;;;;;;;11.33;76.75;99107.09;5033582;28;20116;-78
2023/04/29 03:38:18;;;;;;;19.98;13.82;;;;;;;11.47;76.84;99116.75;5033455;28;20469;-78
2023/04/29 03:40:44;;;;;;;20.55;14.52;;;;;;;11.42;76.76;99114.41;5033098;28;20620;-78
2023/04/29 03:43:09;;;;;;;17.90;13.63;;;;;;;11.47;76.85;99116.75;5032485;28;20374;-78
2023/04/29 03:45:35;;;;;;;18.60;12.77;;;;;;;11.34;76.88;99102.75;5033361;28;20044;-78
2023/04/29 03:48:01;;;;;;;19.58;13.88;;;;;;;11.35;76.89;99120.91;5032968;28;20017;-77
2023/04/29 03:50:27;;;;;;;21.70;14.18;;;;;;;11.49;76.84;99118.31;5033241;28;20026;-77
2023/04/29 03:52:52;;;;;;;23.05;13.38;;;;;;;11.43;76.78;99121.31;5032893;28;20025;-78
2023/04/29 03:55:17;;;;;;;17.48;12.50;;;;;;;11.16;77.32;99102.03;5033643;28;20029;-78
2023/04/29 03:57:43;;;;;;;18.63;12.13;;;;;;;11.14;77.57;99107.34;5033046;28;20104;-78
2023/04/29 04:00:08;;;;;;;15.02;12.32;;;;;;;11.24;77.36;99113.69;5033165;28;20082;-78
2023/04/29 04:02:34;;;;;;;19.02;12.25;;;;;;;11.17;77.39;99104.56;5033051;28;20084;-78
2023/04/29 04:05:00;;;;;;;18.63;12.77;;;;;;;11.26;77.54;99134.47;5032751;28;20052;-78
2023/04/29 04:07:25;;;;;;;18.23;12.38;;;;;;;11.01;77.95;99103.78;5032829;28;20100;-78
2023/04/29 04:09:50;;;;;;;20.77;13.68;;;;;;;11.12;78.20;99118.78;5031273;28;20040;-78
2023/04/29 04:12:16;;;;;;;18.48;12.85;;;;;;;11.17;78.14;99128.03;5032818;28;20032;-78
2023/04/29 04:14:41;;;;;;;19.25;13.35;;;;;;;11.12;78.09;99119.59;5032717;28;20055;-78
2023/04/29 04:17:06;;;;;;;18.40;11.93;;;;;;;11.11;78.12;99132.75;5032785;28;20021;-78
2023/04/29 04:19:32;;;;;;;17.45;12.30;;;;;;;11.09;78.37;99113.75;5032969;28;20036;-78
2023/04/29 04:21:57;;;;;;;18.13;11.95;;;;;;;11.05;77.98;99092.25;5032351;28;20029;-78
2023/04/29 04:24:23;;;;;;;20.30;12.57;;;;;;;11.26;78.02;99124.06;5032748;28;20029;-78
2023/04/29 04:26:48;;;;;;;16.50;11.93;;;;;;;11.23;77.98;99091.16;5032298;28;20046;-78
2023/04/29 04:29:13;;;;;;;17.77;12.95;;;;;;;11.31;77.82;99088.13;5032690;28;20017;-78
2023/04/29 04:31:39;;;;;;;18.17;11.88;;;;;;;11.24;77.82;99099.81;5032347;28;20057;-78
2023/04/29 04:34:04;;;;;;;16.63;11.68;;;;;;;11.13;78.31;99095.25;5032730;28;20026;-78
2023/04/29 04:36:31;;;;;;;20.90;13.02;;;;;;;11.33;77.82;99108.88;5032140;28;20025;-78
2023/04/29 04:38:56;;;;;;;15.50;12.75;;;;;;;11.47;77.59;99119.34;5032299;28;20111;-78
2023/04/29 04:41:22;;;;;;;16.00;12.73;;;;;;;11.63;77.28;99109.69;5032388;28;20108;-78
2023/04/29 04:43:48;;;;;;;17.10;12.82;;;;;;;11.77;76.89;99097.59;5032160;28;20056;-78
2023/04/29 04:46:15;;;;;;;15.18;12.10;;;;;;;11.90;76.14;99098.56;5032272;28;20086;-78
2023/04/29 04:48:41;;;;;;;17.13;12.38;;;;;;;12.14;75.49;99117.13;5031777;28;20488;-78
2023/04/29 04:51:10;;;;;;;18.55;11.98;;;;;;;12.17;75.44;99096.00;5032077;28;20029;-78
2023/04/29 04:53:36;;;;;;;15.95;11.88;;;;;;;12.41;74.59;99131.06;5032467;28;20022;-78
2023/04/29 04:56:02;;;;;;;17.25;11.45;;;;;;;12.54;74.30;99122.47;5032133;28;20033;-78
2023/04/29 04:58:27;;;;;;;13.55;11.07;;;;;;;12.78;73.90;99136.59;5032207;28;20032;-78
2023/04/29 05:00:53;;;;;;;15.32;11.20;;;;;;;12.86;73.54;99129.09;5031828;28;20100;-78
2023/04/29 05:03:18;;;;;;;17.10;11.55;;;;;;;12.84;73.21;99109.22;5032031;28;20108;-78
2023/04/29 05:05:43;;;;;;;13.15;11.18;;;;;;;12.80;73.36;99098.09;5032037;28;20060;-78
2023/04/29 05:08:09;;;;;;;18.20;11.82;;;;;;;12.96;72.91;99096.19;5032210;28;20033;-78
2023/04/29 05:10:37;;;;;;;14.38;10.85;;;;;;;13.30;72.58;99116.69;5032047;28;20049;-78
2023/04/29 05:13:02;;;;;;;12.73;10.88;;;;;;;13.44;72.10;99111.38;5031819;28;20112;-78
2023/04/29 05:15:28;;;;;;;16.02;11.38;;;;;;;13.78;71.15;99128.28;5031990;28;20108;-78
2023/04/29 05:17:53;;;;;;;13.52;10.88;;;;;;;13.87;71.16;99124.19;5031742;28;20075;-79
2023/04/29 05:20:20;;;;;;;16.65;11.40;;;;;;;13.91;70.62;99116.03;5032078;28;20037;-79
2023/04/29 05:22:45;;;;;;;12.93;10.63;;;;;;;13.87;70.67;99104.09;5031833;28;20053;-78
2023/04/29 05:25:11;;;;;;;17.95;11.60;;;;;;;13.78;70.52;99104.72;5031996;28;20057;-79
2023/04/29 05:27:36;;;;;;;15.20;11.25;;;;;;;13.79;71.17;99108.16;5031694;28;20045;-78
2023/04/29 05:30:02;;;;;;;14.45;10.45;;;;;;;13.79;71.17;99116.03;5031576;28;20026;-78
2023/04/29 05:32:27;;;;;;;14.85;12.15;;;;;;;13.84;71.57;99113.94;5031677;28;20028;-78
2023/04/29 05:34:52;;;;;;;17.15;11.35;;;;;;;13.71;71.15;99095.59;5031451;28;20477;-78
2023/04/29 05:37:18;;;;;;;14.60;10.82;;;;;;;13.76;71.55;99103.97;5031872;28;20486;-78
2023/04/29 05:39:43;;;;;;;17.75;11.00;;;;;;;13.80;71.31;99113.28;5031606;28;20053;-78
2023/04/29 05:42:08;;;;;;;14.00;10.82;;;;;;;13.80;71.48;99112.47;5031666;28;20025;-78
2023/04/29 05:44:34;;;;;;;16.30;10.50;;;;;;;13.82;71.35;99103.56;5031760;28;20033;-78
2023/04/29 05:46:59;;;;;;;13.00;11.43;;;;;;;14.01;71.30;99123.22;5032173;28;20025;-78
2023/04/29 05:49:25;;;;;;;14.63;11.00;;;;;;;14.18;71.13;99136.00;5035511;28;20416;-78
2023/04/29 05:51:50;;;;;;;14.55;11.50;;;;;;;14.10;70.39;99112.13;5035079;28;20018;-78
2023/04/29 05:54:15;;;;;;;13.63;10.20;;;;;;;14.15;70.57;99118.69;5035503;28;20033;-78
2023/04/29 05:56:41;;;;;;;13.10;10.88;;;;;;;14.34;70.67;99123.50;5035502;28;20060;-78
2023/04/29 05:59:07;;;;;;;13.70;10.20;;;;;;;14.34;70.43;99120.06;5037389;28;20025;-78
2023/04/29 06:01:32;;;;;;;14.15;10.70;;;;;;;14.55;70.02;99131.66;5055267;28;20461;-79
2023/04/29 06:03:57;;;;;;;13.50;10.32;;;;;;;14.58;69.56;99120.09;5054905;28;20090;-78
2023/04/29 06:06:23;;;;;;;12.55;9.88;;;;;;;14.74;69.47;99128.53;5055082;28;20021;-78
2023/04/29 06:08:48;;;;;;;14.88;11.07;;;;;;;14.65;70.05;99121.34;5054767;28;20029;-78
2023/04/29 06:11:13;;;;;;;11.23;9.93;;;;;;;14.85;70.16;99135.66;5054956;28;20021;-78
2023/04/29 06:13:39;;;;;;;12.30;11.02;;;;;;;15.05;69.20;99136.81;5055125;28;20033;-78
2023/04/29 06:16:04;;;;;;;12.27;10.23;;;;;;;15.12;69.05;99130.16;5054813;28;20021;-79
2023/04/29 06:18:30;;;;;;;15.82;11.23;;;;;;;15.09;69.35;99114.69;5054870;28;20040;-78
2023/04/29 06:20:55;;;;;;;13.80;10.95;;;;;;;15.45;69.12;99114.53;5054569;28;20556;-79
2023/04/29 06:23:20;;;;;;;16.67;11.25;;;;;;;15.87;69.66;99135.88;5054969;28;20044;-79
2023/04/29 06:25:46;;;;;;;15.57;13.20;;;;;;;15.90;70.02;99125.16;5054688;28;20048;-79
2023/04/29 06:28:11;;;;;;;15.02;11.43;;;;;;;15.84;71.17;99111.66;5054794;28;20064;-79
2023/04/29 06:30:37;;;;;;;15.77;10.52;;;;;;;16.10;71.37;99130.69;5054683;28;20021;-79
2023/04/29 06:33:02;;;;;;;15.40;11.88;;;;;;;16.18;72.27;99139.63;5054467;28;20033;-79
2023/04/29 06:35:27;;;;;;;16.20;12.70;;;;;;;16.12;72.81;99144.50;5054580;28;20043;-79
2023/04/29 06:37:55;;;;;;;13.45;12.05;;;;;;;15.84;73.86;99128.25;5054527;28;20029;-79
2023/04/29 06:40:20;;;;;;;15.60;12.35;;;;;;;15.72;74.12;99129.22;5054446;28;20112;-78
2023/04/29 06:42:45;;;;;;;15.52;11.75;;;;;;;15.63;74.80;99146.47;5054575;28;20105;-79
2023/04/29 06:45:11;;;;;;;16.02;12.98;;;;;;;15.40;75.65;99128.97;5054184;28;20115;-78
2023/04/29 06:47:36;;;;;;;17.48;13.10;;;;;;;15.44;75.94;99149.63;5054344;28;20476;-79
2023/04/29 06:50:02;;;;;;;14.38;12.48;;;;;;;15.35;76.15;99159.97;5054007;28;20029;-78
2023/04/29 06:52:27;;;;;;;17.23;13.60;;;;;;;15.15;76.22;99130.78;5054309;28;20507;-78
2023/04/29 06:54:52;;;;;;;17.30;12.63;;;;;;;15.17;76.14;99142.00;5054129;28;20036;-85
2023/04/29 06:57:17;;;;;;;14.45;12.50;;;;;;;15.25;75.91;99154.53;5043160;28;20032;-82
2023/04/29 06:59:43;;;;;;;16.17;12.15;;;;;;;15.18;75.90;99146.31;5033901;28;20480;-78
2023/04/29 07:02:08;;;;;;;16.58;12.55;;;;;;;15.21;76.08;99150.47;5033754;28;20033;-78
2023/04/29 07:04:36;;;;;;;19.30;12.88;;;;;;;15.10;76.48;99135.53;5034225;28;20025;-78
2023/04/29 07:07:01;;;;;;;17.77;14.10;;;;;;;15.08;76.65;99136.59;5034042;28;20029;-78
2023/04/29 07:09:27;;;;;;;16.13;13.57;;;;;;;14.95;77.41;99141.88;5034176;28;20079;-78
2023/04/29 07:11:53;;;;;;;14.73;11.82;;;;;;;14.78;77.74;99123.91;5033802;28;20021;-78
2023/04/29 07:14:21;;;;;;;16.30;12.82;;;;;;;14.80;78.88;99141.22;5033990;28;20033;-78
2023/04/29 07:16:46;;;;;;;15.43;13.38;;;;;;;14.75;79.09;99150.34;5035903;28;20532;-78
2023/04/29 07:19:12;;;;;;;15.40;13.77;;;;;;;14.69;79.84;99149.00;5050367;28;20032;-78
2023/04/29 07:21:37;;;;;;;18.63;13.95;;;;;;;14.64;80.47;99145.88;5053901;28;20025;-78
2023/04/29 07:24:03;;;;;;;18.88;13.82;;;;;;;14.53;81.31;99138.78;5053590;28;20029;-78
2023/04/29 07:26:29;;;;;;;15.43;12.98;;;;;;;14.48;81.25;99125.13;5053545;28;20099;-78
2023/04/29 07:28:54;;;;;;;17.77;14.43;;;;;;;14.45;80.82;99134.06;5053712;28;20028;-78
2023/04/29 07:31:20;;;;;;;15.73;13.60;;;;;;;14.43;81.23;99124.63;5053261;28;20414;-78
2023/04/29 07:33:46;;;;;;;17.83;14.98;;;;;;;14.58;81.82;99146.31;5052809;28;20492;-78
2023/04/29 07:36:11;;;;;;;16.42;14.60;;;;;;;14.52;81.38;99139.72;5052214;28;20381;-78
2023/04/29 07:38:37;;;;;;;18.00;14.65;;;;;;;14.40;81.74;99132.69;5052463;28;20124;-78
2023/04/29 07:41:05;;;;;;;18.00;14.50;;;;;;;14.31;82.58;99128.13;5052244;28;20037;-78
2023/04/29 07:43:30;;;;;;;18.50;14.85;;;;;;;14.32;83.84;99154.19;5052328;28;20021;-77
2023/04/29 07:45:56;;;;;;;18.15;15.48;;;;;;;14.17;84.63;99131.72;5052191;28;20078;-78
2023/04/29 07:48:22;;;;;;;17.83;15.35;;;;;;;14.18;85.03;99149.09;5052390;28;20029;-77
2023/04/29 07:50:47;;;;;;;17.27;15.48;;;;;;;14.06;85.81;99147.31;5052115;28;20525;-77
2023/04/29 07:53:14;;;;;;;18.80;14.80;;;;;;;13.92;85.94;99133.41;5052588;28;20397;-77
2023/04/29 07:55:40;;;;;;;18.02;15.18;;;;;;;13.98;85.49;99142.59;5052957;28;20029;-77
2023/04/29 07:58:06;;;;;;;18.60;14.90;;;;;;;14.01;85.46;99160.72;5052588;28;20051;-77
2023/04/29 08:00:32;;;;;;;21.60;16.35;;;;;;;14.07;86.50;99162.06;5052825;28;20094;-77
2023/04/29 08:02:57;;;;;;;20.50;15.55;;;;;;;14.02;86.51;99161.56;5052399;28;20020;-77
2023/04/29 08:05:23;;;;;;;21.30;17.27;;;;;;;14.06;87.06;99168.25;5052999;28;20438;-77
2023/04/29 08:07:49;;;;;;;21.33;17.17;;;;;;;14.11;87.55;99166.16;5052695;28;20504;-77
2023/04/29 08:10:15;;;;;;;18.27;16.15;;;;;;;14.02;87.45;99157.16;5051876;28;20032;-77
2023/04/29 08:12:40;;;;;;;21.88;17.67;;;;;;;13.83;88.31;99136.66;5052645;28;20036;-77
2023/04/29 08:15:06;;;;;;;21.95;17.40;;;;;;;13.95;88.24;99163.78;5052200;28;20453;-77
2023/04/29 08:17:32;;;;;;;20.38;17.80;;;;;;;14.07;87.95;99181.25;5052636;28;20036;-77
2023/04/29 08:19:57;;;;;;;27.05;19.88;;;;;;;13.95;88.26;99163.78;5051944;28;20040;-77
2023/04/29 08:22:22;;;;;;;24.40;18.58;;;;;;;13.85;88.46;99150.47;5052448;28;20028;-77
2023/04/29 08:24:48;;;;;;;25.02;17.15;;;;;;;13.88;88.77;99163.34;5052222;28;20028;-78
2023/04/29 08:27:14;;;;;;;25.67;19.02;;;;;;;14.07;88.85;99193.50;5052260;28;20048;-77
2023/04/29 08:29:40;;;;;;;31.77;20.33;;;;;;;14.03;88.73;99171.09;5047344;28;20029;-77
2023/04/29 08:32:06;;;;;;;101.00;47.45;;;;;;;14.08;89.36;99175.09;5031898;28;20643;-80
2023/04/29 08:34:32;;;;;;;123.75;51.28;;;;;;;14.07;89.63;99165.53;5032403;28;20105;-81
2023/04/29 08:36:58;;;;;;;122.50;55.15;;;;;;;14.13;89.69;99165.13;5031990;28;20029;-81
2023/04/29 08:39:23;;;;;;;66.13;33.72;;;;;;;14.30;89.33;99182.28;5032246;28;20484;-81
2023/04/29 08:41:50;;;;;;;61.00;37.50;;;;;;;14.30;89.06;99168.34;5041932;28;20028;-81
2023/04/29 08:44:16;;;;;;;56.08;38.28;;;;;;;14.45;89.04;99183.00;5051751;28;20094;-79
2023/04/29 08:46:45;;;;;;;34.15;24.85;;;;;;;14.63;88.38;99194.03;5051953;28;20384;-80
2023/04/29 08:49:11;;;;;;;60.17;28.88;;;;;;;14.66;87.84;99173.69;5051886;28;20076;-80
2023/04/29 08:51:37;;;;;;;52.50;27.10;;;;;;;14.83;87.65;99175.09;5052018;28;20028;-80
2023/04/29 08:54:02;;;;;;;32.15;21.70;;;;;;;14.96;87.51;99168.00;5051843;28;20036;-80
2023/04/29 08:56:29;;;;;;;19.52;17.23;;;;;;;15.02;87.71;99169.34;5051981;28;20021;-80
2023/04/29 08:58:57;;;;;;;20.50;17.85;;;;;;;15.12;88.45;99161.63;5051773;28;20437;-80
2023/04/29 09:01:26;;;;;;;20.48;18.35;;;;;;;15.43;87.16;99182.06;5051806;28;20029;-80
2023/04/29 09:04:19;;;;;;;20.35;17.85;;;;;;;15.68;86.88;99177.66;5051952;28;20037;-80
2023/04/29 09:06:45;;;;;;;18.60;16.50;;;;;;;15.78;86.03;99183.88;5051788;28;20476;-80
2023/04/29 09:09:13;;;;;;;19.35;16.92;;;;;;;15.86;86.44;99180.66;5051479;28;20025;-80
2023/04/29 09:11:38;;;;;;;18.73;16.10;;;;;;;15.84;86.15;99164.16;5051520;28;20032;-80
2023/04/29 09:14:04;;;;;;;20.55;17.17;;;;;;;15.97;85.72;99175.44;5051655;28;20032;-80
2023/04/29 09:16:30;;;;;;;16.17;14.38;;;;;;;16.01;85.15;99162.88;5051738;28;20477;-80
2023/04/29 09:18:55;;;;;;;16.90;14.40;;;;;;;16.11;84.95;99171.75;5051631;28;20476;-80
2023/04/29 09:21:24;;;;;;;16.65;14.38;;;;;;;16.34;83.75;99191.81;5051538;28;20025;-80
2023/04/29 09:23:52;;;;;;;15.18;13.57;;;;;;;16.42;83.01;99193.84;5055757;28;20546;-80
2023/04/29 09:26:18;;;;;;;16.23;14.70;;;;;;;16.41;83.49;99189.56;5055190;28;20045;-80
2023/04/29 09:28:44;;;;;;;14.02;12.50;;;;;;;16.49;82.82;99179.28;5055956;28;20098;-80
2023/04/29 09:31:12;;;;;;;14.07;12.50;;;;;;;16.73;82.04;99180.94;5055421;28;20072;-80
2023/04/29 09:33:56;;;;;;;14.52;12.80;;;;;;;16.76;81.78;99171.03;5055737;28;20029;-80
2023/04/29 09:36:46;;;;;;;17.15;14.32;;;;;;;16.91;82.07;99176.88;5055360;28;20032;-80
2023/04/29 09:39:14;;;;;;;13.55;12.05;;;;;;;17.26;81.42;99202.94;5055395;28;20025;-80
2023/04/29 09:41:51;;;;;;;17.58;14.57;;;;;;;17.38;80.59;99209.00;5055578;28;20033;-80
2023/04/29 09:44:17;;;;;;;11.75;10.52;;;;;;;17.34;78.76;99189.16;5055197;28;20135;-80
2023/04/29 09:46:43;;;;;;;15.82;12.65;;;;;;;17.46;78.74;99194.25;5055447;28;20029;-81
2023/04/29 09:49:26;;;;;;;12.20;10.18;;;;;;;17.63;78.79;99187.59;5054987;28;20032;-81
2023/04/29 09:51:53;;;;;;;10.60;9.38;;;;;;;17.95;77.75;99198.13;5055139;28;20052;-81
2023/04/29 09:54:23;;;;;;;10.13;9.10;;;;;;;18.03;77.36;99197.44;5055187;28;20032;-81
2023/04/29 09:56:51;;;;;;;9.60;8.17;;;;;;;18.21;76.37;99205.63;5055252;28;20025;-81
2023/04/29 09:59:18;;;;;;;9.02;7.90;;;;;;;18.28;75.78;99213.81;5055030;28;20032;-81
2023/04/29 10:01:47;;;;;;;8.75;7.93;;;;;;;18.28;75.84;99205.91;5055375;28;20350;-81
2023/04/29 10:04:15;;;;;;;9.02;7.25;;;;;;;18.40;74.91;99215.41;5054981;28;20106;-81
2023/04/29 10:06:42;;;;;;;7.80;7.05;;;;;;;18.20;74.71;99194.25;5055309;28;20469;-81
2023/04/29 10:09:14;;;;;;;12.13;9.13;;;;;;;18.36;74.57;99214.81;5054949;28;20033;-81
2023/04/29 10:11:39;;;;;;;9.35;8.38;;;;;;;18.35;74.09;99215.81;5054827;28;20485;-81
2023/04/29 10:14:06;;;;;;;7.78;7.07;;;;;;;18.36;74.89;99217.47;5054690;28;20112;-81
2023/04/29 10:16:38;;;;;;;9.18;7.18;;;;;;;18.45;74.77;99218.47;5055177;28;20052;-81
2023/04/29 10:19:10;;;;;;;7.80;7.00;;;;;;;18.55;74.35;99203.53;5054836;28;20036;-81
2023/04/29 10:21:37;;;;;;;8.98;8.05;;;;;;;18.80;74.55;99219.91;5054960;28;20037;-81
2023/04/29 10:24:03;;;;;;;8.05;7.28;;;;;;;18.88;74.53;99209.53;5054667;28;20465;-81
2023/04/29 10:26:29;;;;;;;7.93;7.13;;;;;;;19.13;71.13;99216.06;5054525;28;20041;-81
2023/04/29 10:28:55;;;;;;;9.02;7.95;;;;;;;19.11;70.09;99203.03;5054662;28;20032;-81
2023/04/29 10:31:21;;;;;;;6.75;6.00;;;;;;;19.18;69.70;99206.78;5053215;28;20362;-81
2023/04/29 10:33:48;;;;;;;6.40;5.72;;;;;;;19.26;69.42;99216.66;5054339;28;20036;-81
2023/04/29 10:36:14;;;;;;;7.25;5.55;;;;;;;18.93;70.66;99208.13;5054228;28;20033;-81
2023/04/29 10:38:46;;;;;;;5.55;5.05;;;;;;;18.79;70.70;99194.47;5054526;28;20033;-81
2023/04/29 10:41:20;;;;;;;11.68;8.23;;;;;;;18.91;69.98;99198.66;5054140;28;20037;-81
2023/04/29 10:43:46;;;;;;;9.20;7.90;;;;;;;18.97;70.43;99186.75;5054590;28;20507;-81
2023/04/29 10:46:15;;;;;;;11.43;9.70;;;;;;;19.04;70.33;99193.97;5054142;28;20502;-81
2023/04/29 10:48:42;;;;;;;15.18;11.38;;;;;;;18.99;70.86;99188.28;5054422;28;20028;-81
2023/04/29 10:51:07;;;;;;;7.25;6.43;;;;;;;18.89;70.01;99180.34;5054061;28;20533;-81
2023/04/29 10:53:33;;;;;;;8.15;7.35;;;;;;;18.79;71.96;99171.56;5048891;28;20116;-81
2023/04/29 10:56:04;;;;;;;7.72;6.93;;;;;;;18.83;72.49;99175.59;5042926;28;20032;-81
2023/04/29 10:58:33;;;;;;;9.10;8.15;;;;;;;18.97;72.41;99192.88;5044188;28;20071;-80
2023/04/29 11:00:58;;;;;;;8.18;7.30;;;;;;;19.01;70.94;99161.75;5041264;28;20029;-81
2023/04/29 11:03:59;;;;;;;7.28;6.57;;;;;;;19.24;70.10;99183.44;5033807;28;20029;-81
2023/04/29 11:06:34;;;;;;;7.22;6.53;;;;;;;19.26;69.73;99181.53;5033748;28;20090;-81
2023/04/29 11:09:33;;;;;;;8.93;7.45;;;;;;;19.14;69.61;99173.72;5042032;28;20025;-81
2023/04/29 11:12:02;;;;;;;7.53;6.45;;;;;;;19.04;69.09;99164.09;5043227;28;20033;-81
2023/04/29 11:14:37;;;;;;;7.05;6.35;;;;;;;19.04;70.07;99164.09;5042933;28;20022;-81
2023/04/29 11:17:06;;;;;;;7.35;6.63;;;;;;;19.23;70.17;99174.69;5042640;28;20476;-81
2023/04/29 11:19:34;;;;;;;6.43;5.82;;;;;;;19.17;69.32;99157.63;5050543;28;20067;-81
2023/04/29 11:22:11;;;;;;;7.35;6.13;;;;;;;18.99;68.87;99156.59;5053653;28;20029;-81